Terminal Aerodrome Forecast
Issued by NWS La Crosse, WI

Home | Current Version | Previous Version | Text Only | Print | Product List | Glossary On
Versions: 1 2 3 4 5 6 7 8 9 10 11 12 13 14 15 16 17 18 19 20 21 22 23 24 25 26 27 28 29 30 31 32 33 34 35 36 37 38 39 40
082
FTUS43 KARX 211124
TAFRST
TAF
KRST 211124Z 2112/2212 VRB03KT P6SM VCTS SCT040CB BKN060
     FM211400 17005KT P6SM BKN100
     FM212300 25006KT 4SM SHRA VCTS SCT035CB OVC050
     FM220300 28004KT P6SM OVC025
     FM220800 31006KT P6SM BKN045=

USA.gov is the U.S. government's official web portal to all federal, state and local government web resources and services.